sensor_id;sensor_type;location;lat;lon;timestamp;P1;durP1;ratioP1;P2;durP2;ratioP2
12593;SDS011;6362;50.208;9.182;2022-09-09T00:00:50;2.25;;;0.70;;
12593;SDS011;6362;50.208;9.182;2022-09-09T00:03:26;3.20;;;0.80;;
12593;SDS011;6362;50.208;9.182;2022-09-09T00:06:04;2.78;;;0.70;;
12593;SDS011;6362;50.208;9.182;2022-09-09T00:08:44;1.92;;;0.70;;
12593;SDS011;6362;50.208;9.182;2022-09-09T00:11:34;2.47;;;0.70;;
12593;SDS011;6362;50.208;9.182;2022-09-09T00:14:08;2.22;;;0.60;;
12593;SDS011;6362;50.208;9.182;2022-09-09T00:16:42;2.10;;;0.60;;
12593;SDS011;6362;50.208;9.182;2022-09-09T00:19:20;4.43;;;0.85;;
12593;SDS011;6362;50.208;9.182;2022-09-09T00:24:38;2.50;;;0.70;;
12593;SDS011;6362;50.208;9.182;2022-09-09T00:27:35;3.83;;;0.93;;
12593;SDS011;6362;50.208;9.182;2022-09-09T00:30:14;4.40;;;0.77;;
12593;SDS011;6362;50.208;9.182;2022-09-09T00:32:55;3.55;;;0.65;;
12593;SDS011;6362;50.208;9.182;2022-09-09T00:35:32;2.22;;;0.77;;
12593;SDS011;6362;50.208;9.182;2022-09-09T00:38:05;3.17;;;0.75;;
12593;SDS011;6362;50.208;9.182;2022-09-09T00:40:41;1.13;;;0.60;;
12593;SDS011;6362;50.208;9.182;2022-09-09T00:43:20;3.67;;;0.82;;
12593;SDS011;6362;50.208;9.182;2022-09-09T00:49:10;3.10;;;1.00;;
12593;SDS011;6362;50.208;9.182;2022-09-09T00:51:32;2.25;;;1.00;;
12593;SDS011;6362;50.208;9.182;2022-09-09T00:57:13;3.72;;;0.85;;
12593;SDS011;6362;50.208;9.182;2022-09-09T00:59:52;2.60;;;0.90;;
12593;SDS011;6362;50.208;9.182;2022-09-09T01:02:27;2.22;;;0.90;;
12593;SDS011;6362;50.208;9.182;2022-09-09T01:04:58;4.03;;;0.80;;
12593;SDS011;6362;50.208;9.182;2022-09-09T01:07:30;3.17;;;0.73;;
12593;SDS011;6362;50.208;9.182;2022-09-09T01:09:57;2.35;;;0.70;;
12593;SDS011;6362;50.208;9.182;2022-09-09T01:15:13;3.75;;;0.82;;
12593;SDS011;6362;50.208;9.182;2022-09-09T01:20:14;3.90;;;0.70;;
12593;SDS011;6362;50.208;9.182;2022-09-09T01:25:29;1.88;;;0.60;;
12593;SDS011;6362;50.208;9.182;2022-09-09T01:28:29;1.98;;;0.68;;
12593;SDS011;6362;50.208;9.182;2022-09-09T01:30:56;1.80;;;0.50;;
12593;SDS011;6362;50.208;9.182;2022-09-09T01:33:23;5.50;;;0.70;;
12593;SDS011;6362;50.208;9.182;2022-09-09T01:35:54;3.00;;;0.70;;
12593;SDS011;6362;50.208;9.182;2022-09-09T01:38:25;4.40;;;0.90;;
12593;SDS011;6362;50.208;9.182;2022-09-09T01:40:53;2.65;;;0.75;;
12593;SDS011;6362;50.208;9.182;2022-09-09T01:43:19;1.52;;;0.60;;
12593;SDS011;6362;50.208;9.182;2022-09-09T01:45:45;4.40;;;0.70;;
12593;SDS011;6362;50.208;9.182;2022-09-09T01:48:14;3.25;;;0.70;;
12593;SDS011;6362;50.208;9.182;2022-09-09T01:50:40;2.38;;;0.57;;
12593;SDS011;6362;50.208;9.182;2022-09-09T01:53:06;3.00;;;0.60;;
12593;SDS011;6362;50.208;9.182;2022-09-09T01:55:33;3.83;;;0.93;;
12593;SDS011;6362;50.208;9.182;2022-09-09T01:58:17;6.93;;;1.17;;
12593;SDS011;6362;50.208;9.182;2022-09-09T02:01:06;4.28;;;0.70;;
12593;SDS011;6362;50.208;9.182;2022-09-09T02:03:56;4.85;;;0.77;;
12593;SDS011;6362;50.208;9.182;2022-09-09T02:09:01;2.55;;;0.70;;
12593;SDS011;6362;50.208;9.182;2022-09-09T02:11:30;3.47;;;0.60;;
12593;SDS011;6362;50.208;9.182;2022-09-09T02:14:00;2.65;;;0.70;;
12593;SDS011;6362;50.208;9.182;2022-09-09T02:21:42;3.97;;;0.60;;
12593;SDS011;6362;50.208;9.182;2022-09-09T02:24:10;2.50;;;0.55;;
12593;SDS011;6362;50.208;9.182;2022-09-09T02:26:40;3.83;;;0.63;;
12593;SDS011;6362;50.208;9.182;2022-09-09T02:29:27;2.80;;;0.75;;
12593;SDS011;6362;50.208;9.182;2022-09-09T02:31:57;3.38;;;0.63;;
12593;SDS011;6362;50.208;9.182;2022-09-09T02:34:28;3.58;;;0.60;;
12593;SDS011;6362;50.208;9.182;2022-09-09T02:36:55;3.33;;;0.80;;
12593;SDS011;6362;50.208;9.182;2022-09-09T02:39:23;3.30;;;0.85;;
12593;SDS011;6362;50.208;9.182;2022-09-09T02:41:48;5.38;;;0.70;;
12593;SDS011;6362;50.208;9.182;2022-09-09T02:44:16;2.33;;;0.75;;
12593;SDS011;6362;50.208;9.182;2022-09-09T02:46:47;3.13;;;0.70;;
12593;SDS011;6362;50.208;9.182;2022-09-09T02:55:25;3.58;;;1.23;;
12593;SDS011;6362;50.208;9.182;2022-09-09T02:58:03;3.47;;;0.85;;
12593;SDS011;6362;50.208;9.182;2022-09-09T03:00:32;6.50;;;0.82;;
12593;SDS011;6362;50.208;9.182;2022-09-09T03:02:58;3.42;;;0.60;;
12593;SDS011;6362;50.208;9.182;2022-09-09T03:05:23;3.83;;;0.98;;
12593;SDS011;6362;50.208;9.182;2022-09-09T03:07:49;2.00;;;0.77;;
12593;SDS011;6362;50.208;9.182;2022-09-09T03:10:15;2.53;;;0.85;;
12593;SDS011;6362;50.208;9.182;2022-09-09T03:12:42;2.47;;;0.80;;
12593;SDS011;6362;50.208;9.182;2022-09-09T03:15:08;5.30;;;0.70;;
12593;SDS011;6362;50.208;9.182;2022-09-09T03:17:34;2.45;;;0.90;;
12593;SDS011;6362;50.208;9.182;2022-09-09T03:20:01;3.38;;;0.70;;
12593;SDS011;6362;50.208;9.182;2022-09-09T03:22:28;3.55;;;0.80;;
12593;SDS011;6362;50.208;9.182;2022-09-09T03:24:53;3.45;;;0.90;;
12593;SDS011;6362;50.208;9.182;2022-09-09T03:27:19;2.38;;;0.60;;
12593;SDS011;6362;50.208;9.182;2022-09-09T03:29:44;2.70;;;0.70;;
12593;SDS011;6362;50.208;9.182;2022-09-09T03:32:10;4.05;;;1.20;;
12593;SDS011;6362;50.208;9.182;2022-09-09T03:34:36;6.13;;;1.20;;
12593;SDS011;6362;50.208;9.182;2022-09-09T03:37:04;5.50;;;1.10;;
12593;SDS011;6362;50.208;9.182;2022-09-09T03:39:30;2.33;;;0.95;;
12593;SDS011;6362;50.208;9.182;2022-09-09T03:41:56;3.63;;;0.80;;
12593;SDS011;6362;50.208;9.182;2022-09-09T03:44:21;3.72;;;0.85;;
12593;SDS011;6362;50.208;9.182;2022-09-09T03:46:46;2.08;;;0.60;;
12593;SDS011;6362;50.208;9.182;2022-09-09T03:49:12;2.83;;;0.70;;
12593;SDS011;6362;50.208;9.182;2022-09-09T03:51:37;5.80;;;1.00;;
12593;SDS011;6362;50.208;9.182;2022-09-09T03:54:03;6.30;;;1.00;;
12593;SDS011;6362;50.208;9.182;2022-09-09T03:56:30;2.13;;;0.88;;
12593;SDS011;6362;50.208;9.182;2022-09-09T03:58:56;4.97;;;0.80;;
12593;SDS011;6362;50.208;9.182;2022-09-09T04:01:22;2.80;;;0.80;;
12593;SDS011;6362;50.208;9.182;2022-09-09T04:03:48;4.13;;;0.90;;
12593;SDS011;6362;50.208;9.182;2022-09-09T04:06:15;2.35;;;0.77;;
12593;SDS011;6362;50.208;9.182;2022-09-09T04:08:42;3.22;;;0.77;;
12593;SDS011;6362;50.208;9.182;2022-09-09T04:11:07;3.15;;;0.85;;
12593;SDS011;6362;50.208;9.182;2022-09-09T04:13:34;3.47;;;0.70;;
12593;SDS011;6362;50.208;9.182;2022-09-09T04:16:00;4.28;;;0.85;;
12593;SDS011;6362;50.208;9.182;2022-09-09T04:18:27;4.32;;;0.75;;
12593;SDS011;6362;50.208;9.182;2022-09-09T04:20:53;3.35;;;0.90;;
12593;SDS011;6362;50.208;9.182;2022-09-09T04:23:19;5.55;;;0.80;;
12593;SDS011;6362;50.208;9.182;2022-09-09T04:25:47;3.45;;;0.80;;
12593;SDS011;6362;50.208;9.182;2022-09-09T04:28:14;4.10;;;0.95;;
12593;SDS011;6362;50.208;9.182;2022-09-09T04:30:41;4.05;;;0.70;;
12593;SDS011;6362;50.208;9.182;2022-09-09T04:33:07;4.40;;;0.80;;
12593;SDS011;6362;50.208;9.182;2022-09-09T04:35:32;2.83;;;1.00;;
12593;SDS011;6362;50.208;9.182;2022-09-09T04:37:58;5.90;;;1.10;;
12593;SDS011;6362;50.208;9.182;2022-09-09T04:40:24;5.97;;;1.10;;
12593;SDS011;6362;50.208;9.182;2022-09-09T04:42:50;4.20;;;1.20;;
12593;SDS011;6362;50.208;9.182;2022-09-09T04:45:15;2.72;;;0.90;;
12593;SDS011;6362;50.208;9.182;2022-09-09T04:47:41;5.13;;;0.88;;
12593;SDS011;6362;50.208;9.182;2022-09-09T04:50:07;2.50;;;0.70;;
12593;SDS011;6362;50.208;9.182;2022-09-09T04:52:34;3.25;;;1.15;;
12593;SDS011;6362;50.208;9.182;2022-09-09T04:55:00;5.07;;;1.00;;
12593;SDS011;6362;50.208;9.182;2022-09-09T04:57:26;3.97;;;0.90;;
12593;SDS011;6362;50.208;9.182;2022-09-09T04:59:52;3.75;;;0.75;;
12593;SDS011;6362;50.208;9.182;2022-09-09T05:02:17;2.08;;;0.75;;
12593;SDS011;6362;50.208;9.182;2022-09-09T05:04:42;2.97;;;0.98;;
12593;SDS011;6362;50.208;9.182;2022-09-09T05:07:08;6.03;;;0.90;;
12593;SDS011;6362;50.208;9.182;2022-09-09T05:09:34;6.00;;;0.90;;
12593;SDS011;6362;50.208;9.182;2022-09-09T05:11:59;3.67;;;0.80;;
12593;SDS011;6362;50.208;9.182;2022-09-09T05:14:25;3.58;;;0.90;;
12593;SDS011;6362;50.208;9.182;2022-09-09T05:16:51;3.63;;;0.90;;
12593;SDS011;6362;50.208;9.182;2022-09-09T05:19:16;4.85;;;0.77;;
12593;SDS011;6362;50.208;9.182;2022-09-09T05:21:44;4.43;;;0.90;;
12593;SDS011;6362;50.208;9.182;2022-09-09T05:24:09;4.95;;;0.90;;
12593;SDS011;6362;50.208;9.182;2022-09-09T05:26:35;3.60;;;1.05;;
12593;SDS011;6362;50.208;9.182;2022-09-09T05:29:00;2.97;;;0.90;;
12593;SDS011;6362;50.208;9.182;2022-09-09T05:31:26;2.33;;;0.80;;
12593;SDS011;6362;50.208;9.182;2022-09-09T05:33:53;5.00;;;0.95;;
12593;SDS011;6362;50.208;9.182;2022-09-09T05:36:19;4.65;;;1.00;;
12593;SDS011;6362;50.208;9.182;2022-09-09T05:38:47;2.30;;;0.80;;
12593;SDS011;6362;50.208;9.182;2022-09-09T05:41:13;4.75;;;0.95;;
12593;SDS011;6362;50.208;9.182;2022-09-09T05:43:42;3.88;;;0.70;;
12593;SDS011;6362;50.208;9.182;2022-09-09T05:46:22;2.55;;;0.80;;
12593;SDS011;6362;50.208;9.182;2022-09-09T05:48:49;3.85;;;0.73;;
12593;SDS011;6362;50.208;9.182;2022-09-09T05:51:24;3.28;;;0.80;;
12593;SDS011;6362;50.208;9.182;2022-09-09T05:53:51;3.58;;;1.05;;
12593;SDS011;6362;50.208;9.182;2022-09-09T05:56:17;4.82;;;0.80;;
12593;SDS011;6362;50.208;9.182;2022-09-09T05:58:45;2.60;;;0.85;;
12593;SDS011;6362;50.208;9.182;2022-09-09T06:01:18;2.75;;;1.00;;
12593;SDS011;6362;50.208;9.182;2022-09-09T06:03:46;3.70;;;0.90;;
12593;SDS011;6362;50.208;9.182;2022-09-09T06:06:17;4.00;;;0.80;;
12593;SDS011;6362;50.208;9.182;2022-09-09T06:08:46;4.88;;;0.93;;
12593;SDS011;6362;50.208;9.182;2022-09-09T06:11:13;4.70;;;1.15;;
12593;SDS011;6362;50.208;9.182;2022-09-09T06:13:40;5.13;;;0.93;;
12593;SDS011;6362;50.208;9.182;2022-09-09T06:16:13;4.35;;;0.93;;
12593;SDS011;6362;50.208;9.182;2022-09-09T06:18:40;4.25;;;1.02;;
12593;SDS011;6362;50.208;9.182;2022-09-09T06:21:06;3.25;;;0.93;;
12593;SDS011;6362;50.208;9.182;2022-09-09T06:23:46;7.22;;;1.25;;
12593;SDS011;6362;50.208;9.182;2022-09-09T06:26:22;5.63;;;1.00;;
12593;SDS011;6362;50.208;9.182;2022-09-09T06:28:53;2.55;;;0.82;;
12593;SDS011;6362;50.208;9.182;2022-09-09T06:31:21;4.10;;;0.90;;
12593;SDS011;6362;50.208;9.182;2022-09-09T06:33:51;5.05;;;0.77;;
12593;SDS011;6362;50.208;9.182;2022-09-09T06:36:20;4.50;;;0.73;;
12593;SDS011;6362;50.208;9.182;2022-09-09T06:38:47;6.25;;;0.93;;
12593;SDS011;6362;50.208;9.182;2022-09-09T06:41:14;4.88;;;0.70;;
12593;SDS011;6362;50.208;9.182;2022-09-09T06:43:41;7.78;;;0.75;;
12593;SDS011;6362;50.208;9.182;2022-09-09T06:48:36;4.95;;;0.73;;
12593;SDS011;6362;50.208;9.182;2022-09-09T06:51:16;7.70;;;0.80;;
12593;SDS011;6362;50.208;9.182;2022-09-09T06:53:44;6.90;;;0.90;;
12593;SDS011;6362;50.208;9.182;2022-09-09T06:58:36;6.35;;;1.05;;
12593;SDS011;6362;50.208;9.182;2022-09-09T07:01:08;4.25;;;0.60;;
12593;SDS011;6362;50.208;9.182;2022-09-09T07:03:34;6.00;;;0.80;;
12593;SDS011;6362;50.208;9.182;2022-09-09T07:06:00;4.25;;;0.70;;
12593;SDS011;6362;50.208;9.182;2022-09-09T07:08:26;4.93;;;0.98;;
12593;SDS011;6362;50.208;9.182;2022-09-09T07:10:52;2.17;;;0.70;;
12593;SDS011;6362;50.208;9.182;2022-09-09T07:13:27;3.53;;;0.60;;
12593;SDS011;6362;50.208;9.182;2022-09-09T07:15:53;3.03;;;0.80;;
12593;SDS011;6362;50.208;9.182;2022-09-09T07:18:19;4.35;;;0.80;;
12593;SDS011;6362;50.208;9.182;2022-09-09T07:20:54;3.88;;;0.75;;
12593;SDS011;6362;50.208;9.182;2022-09-09T07:23:22;3.65;;;0.70;;
12593;SDS011;6362;50.208;9.182;2022-09-09T07:25:48;3.58;;;0.80;;
12593;SDS011;6362;50.208;9.182;2022-09-09T07:28:13;4.95;;;0.98;;
12593;SDS011;6362;50.208;9.182;2022-09-09T07:30:39;5.80;;;0.82;;
12593;SDS011;6362;50.208;9.182;2022-09-09T07:33:05;4.93;;;0.80;;
12593;SDS011;6362;50.208;9.182;2022-09-09T07:35:31;5.18;;;0.90;;
12593;SDS011;6362;50.208;9.182;2022-09-09T07:37:57;8.00;;;1.00;;
12593;SDS011;6362;50.208;9.182;2022-09-09T07:40:23;6.60;;;1.10;;
12593;SDS011;6362;50.208;9.182;2022-09-09T07:42:49;4.32;;;1.00;;
12593;SDS011;6362;50.208;9.182;2022-09-09T07:45:15;3.70;;;0.75;;
12593;SDS011;6362;50.208;9.182;2022-09-09T07:47:40;8.07;;;1.05;;
12593;SDS011;6362;50.208;9.182;2022-09-09T07:50:09;4.57;;;0.70;;
12593;SDS011;6362;50.208;9.182;2022-09-09T07:52:35;4.90;;;0.77;;
12593;SDS011;6362;50.208;9.182;2022-09-09T07:55:01;2.83;;;0.90;;
12593;SDS011;6362;50.208;9.182;2022-09-09T07:57:28;5.97;;;1.00;;
12593;SDS011;6362;50.208;9.182;2022-09-09T07:59:55;3.47;;;0.80;;
12593;SDS011;6362;50.208;9.182;2022-09-09T08:02:22;4.28;;;0.93;;
12593;SDS011;6362;50.208;9.182;2022-09-09T08:04:48;4.50;;;1.00;;
12593;SDS011;6362;50.208;9.182;2022-09-09T08:07:14;5.13;;;1.00;;
12593;SDS011;6362;50.208;9.182;2022-09-09T08:09:41;5.80;;;1.15;;
12593;SDS011;6362;50.208;9.182;2022-09-09T08:12:06;7.28;;;1.10;;
12593;SDS011;6362;50.208;9.182;2022-09-09T08:14:33;5.63;;;1.13;;
12593;SDS011;6362;50.208;9.182;2022-09-09T08:16:58;4.70;;;1.00;;
12593;SDS011;6362;50.208;9.182;2022-09-09T08:19:24;4.18;;;1.20;;
12593;SDS011;6362;50.208;9.182;2022-09-09T08:21:50;6.35;;;1.20;;
12593;SDS011;6362;50.208;9.182;2022-09-09T08:24:15;5.95;;;1.10;;
12593;SDS011;6362;50.208;9.182;2022-09-09T08:26:44;6.35;;;1.20;;
12593;SDS011;6362;50.208;9.182;2022-09-09T08:29:12;5.85;;;1.00;;
12593;SDS011;6362;50.208;9.182;2022-09-09T08:31:45;5.38;;;0.98;;
12593;SDS011;6362;50.208;9.182;2022-09-09T08:34:12;6.28;;;1.23;;
12593;SDS011;6362;50.208;9.182;2022-09-09T08:36:44;7.88;;;1.38;;
12593;SDS011;6362;50.208;9.182;2022-09-09T08:39:11;6.00;;;1.10;;
12593;SDS011;6362;50.208;9.182;2022-09-09T08:47:08;6.13;;;1.15;;
12593;SDS011;6362;50.208;9.182;2022-09-09T08:52:23;6.53;;;1.20;;
12593;SDS011;6362;50.208;9.182;2022-09-09T08:55:05;5.75;;;0.90;;
12593;SDS011;6362;50.208;9.182;2022-09-09T09:00:04;6.22;;;1.05;;
12593;SDS011;6362;50.208;9.182;2022-09-09T09:06:12;4.80;;;1.05;;
12593;SDS011;6362;50.208;9.182;2022-09-09T09:10:47;5.57;;;1.13;;
12593;SDS011;6362;50.208;9.182;2022-09-09T09:13:26;5.43;;;0.90;;
12593;SDS011;6362;50.208;9.182;2022-09-09T09:15:58;3.67;;;0.90;;
12593;SDS011;6362;50.208;9.182;2022-09-09T09:18:28;6.75;;;1.00;;
12593;SDS011;6362;50.208;9.182;2022-09-09T09:20:58;5.57;;;1.05;;
12593;SDS011;6362;50.208;9.182;2022-09-09T09:23:40;7.47;;;1.20;;
12593;SDS011;6362;50.208;9.182;2022-09-09T09:26:11;6.72;;;1.25;;
12593;SDS011;6362;50.208;9.182;2022-09-09T09:28:42;5.55;;;1.08;;
12593;SDS011;6362;50.208;9.182;2022-09-09T09:31:11;6.72;;;1.02;;
12593;SDS011;6362;50.208;9.182;2022-09-09T09:36:11;4.55;;;1.05;;
12593;SDS011;6362;50.208;9.182;2022-09-09T09:38:40;6.45;;;1.30;;
12593;SDS011;6362;50.208;9.182;2022-09-09T09:46:52;6.40;;;1.00;;
12593;SDS011;6362;50.208;9.182;2022-09-09T09:49:18;9.38;;;1.25;;
12593;SDS011;6362;50.208;9.182;2022-09-09T09:51:43;5.55;;;0.88;;
12593;SDS011;6362;50.208;9.182;2022-09-09T09:56:38;6.43;;;1.00;;
12593;SDS011;6362;50.208;9.182;2022-09-09T09:59:05;5.95;;;1.00;;
12593;SDS011;6362;50.208;9.182;2022-09-09T10:01:32;6.20;;;1.10;;
12593;SDS011;6362;50.208;9.182;2022-09-09T10:04:00;4.13;;;0.93;;
12593;SDS011;6362;50.208;9.182;2022-09-09T10:06:34;4.72;;;0.90;;
12593;SDS011;6362;50.208;9.182;2022-09-09T10:09:01;6.28;;;0.77;;
12593;SDS011;6362;50.208;9.182;2022-09-09T10:11:44;4.78;;;0.77;;
12593;SDS011;6362;50.208;9.182;2022-09-09T10:14:21;4.20;;;0.57;;
12593;SDS011;6362;50.208;9.182;2022-09-09T10:16:59;6.10;;;0.73;;
12593;SDS011;6362;50.208;9.182;2022-09-09T10:19:50;4.07;;;0.70;;
12593;SDS011;6362;50.208;9.182;2022-09-09T10:22:28;3.83;;;0.68;;
12593;SDS011;6362;50.208;9.182;2022-09-09T10:30:21;3.92;;;0.75;;
12593;SDS011;6362;50.208;9.182;2022-09-09T10:35:35;3.75;;;0.60;;
12593;SDS011;6362;50.208;9.182;2022-09-09T10:57:09;4.32;;;0.80;;
12593;SDS011;6362;50.208;9.182;2022-09-09T10:59:43;7.13;;;1.45;;
12593;SDS011;6362;50.208;9.182;2022-09-09T11:02:28;5.63;;;0.77;;
12593;SDS011;6362;50.208;9.182;2022-09-09T11:07:47;4.82;;;0.75;;
12593;SDS011;6362;50.208;9.182;2022-09-09T11:10:28;4.03;;;0.73;;
12593;SDS011;6362;50.208;9.182;2022-09-09T11:12:57;9.13;;;0.85;;
12593;SDS011;6362;50.208;9.182;2022-09-09T11:15:36;4.93;;;0.70;;
12593;SDS011;6362;50.208;9.182;2022-09-09T11:18:08;5.65;;;0.60;;
12593;SDS011;6362;50.208;9.182;2022-09-09T11:20:47;5.72;;;0.70;;
12593;SDS011;6362;50.208;9.182;2022-09-09T11:23:24;6.32;;;0.70;;
12593;SDS011;6362;50.208;9.182;2022-09-09T11:25:59;4.63;;;0.75;;
12593;SDS011;6362;50.208;9.182;2022-09-09T11:31:31;3.85;;;0.65;;
12593;SDS011;6362;50.208;9.182;2022-09-09T11:40:18;4.10;;;0.60;;
12593;SDS011;6362;50.208;9.182;2022-09-09T11:42:48;6.80;;;0.57;;
12593;SDS011;6362;50.208;9.182;2022-09-09T11:45:26;5.65;;;0.70;;
12593;SDS011;6362;50.208;9.182;2022-09-09T11:47:58;5.40;;;0.52;;
12593;SDS011;6362;50.208;9.182;2022-09-09T11:52:50;4.68;;;0.60;;
12593;SDS011;6362;50.208;9.182;2022-09-09T11:58:04;4.63;;;0.60;;
12593;SDS011;6362;50.208;9.182;2022-09-09T12:00:41;4.35;;;0.60;;
12593;SDS011;6362;50.208;9.182;2022-09-09T12:08:41;2.75;;;0.50;;
12593;SDS011;6362;50.208;9.182;2022-09-09T12:11:09;2.95;;;0.50;;
12593;SDS011;6362;50.208;9.182;2022-09-09T12:13:36;2.25;;;0.40;;
12593;SDS011;6362;50.208;9.182;2022-09-09T12:16:01;4.60;;;0.40;;
12593;SDS011;6362;50.208;9.182;2022-09-09T12:18:34;2.72;;;0.30;;
12593;SDS011;6362;50.208;9.182;2022-09-09T12:27:11;1.58;;;0.30;;
12593;SDS011;6362;50.208;9.182;2022-09-09T12:29:45;3.13;;;0.30;;
12593;SDS011;6362;50.208;9.182;2022-09-09T12:32:24;2.03;;;0.30;;
12593;SDS011;6362;50.208;9.182;2022-09-09T12:40:39;5.28;;;0.55;;
12593;SDS011;6362;50.208;9.182;2022-09-09T12:43:18;3.83;;;0.52;;
12593;SDS011;6362;50.208;9.182;2022-09-09T12:45:46;4.10;;;0.50;;
12593;SDS011;6362;50.208;9.182;2022-09-09T12:48:14;3.50;;;0.52;;
12593;SDS011;6362;50.208;9.182;2022-09-09T12:50:45;4.88;;;0.50;;
12593;SDS011;6362;50.208;9.182;2022-09-09T12:53:16;3.80;;;0.50;;
12593;SDS011;6362;50.208;9.182;2022-09-09T12:56:18;6.88;;;0.73;;
12593;SDS011;6362;50.208;9.182;2022-09-09T12:58:46;2.53;;;0.47;;
12593;SDS011;6362;50.208;9.182;2022-09-09T13:01:24;2.95;;;0.70;;
12593;SDS011;6362;50.208;9.182;2022-09-09T13:03:54;1.05;;;0.35;;
12593;SDS011;6362;50.208;9.182;2022-09-09T13:06:21;3.25;;;0.50;;
12593;SDS011;6362;50.208;9.182;2022-09-09T13:08:49;5.15;;;0.65;;
12593;SDS011;6362;50.208;9.182;2022-09-09T13:11:17;3.35;;;0.40;;
12593;SDS011;6362;50.208;9.182;2022-09-09T13:13:52;3.53;;;0.50;;
12593;SDS011;6362;50.208;9.182;2022-09-09T13:16:22;2.80;;;0.60;;
12593;SDS011;6362;50.208;9.182;2022-09-09T13:18:51;4.60;;;0.80;;
12593;SDS011;6362;50.208;9.182;2022-09-09T13:23:54;3.05;;;0.55;;
12593;SDS011;6362;50.208;9.182;2022-09-09T13:26:23;4.43;;;0.90;;
12593;SDS011;6362;50.208;9.182;2022-09-09T13:28:51;4.45;;;0.60;;
12593;SDS011;6362;50.208;9.182;2022-09-09T13:31:38;3.92;;;0.60;;
12593;SDS011;6362;50.208;9.182;2022-09-09T13:36:39;4.38;;;0.57;;
12593;SDS011;6362;50.208;9.182;2022-09-09T13:39:13;3.05;;;0.47;;
12593;SDS011;6362;50.208;9.182;2022-09-09T13:41:43;3.83;;;0.70;;
12593;SDS011;6362;50.208;9.182;2022-09-09T13:44:23;4.88;;;0.60;;
12593;SDS011;6362;50.208;9.182;2022-09-09T13:47:03;2.33;;;0.65;;
12593;SDS011;6362;50.208;9.182;2022-09-09T13:49:31;4.57;;;0.80;;
12593;SDS011;6362;50.208;9.182;2022-09-09T13:54:31;5.18;;;0.70;;
12593;SDS011;6362;50.208;9.182;2022-09-09T13:56:56;9.80;;;0.90;;
12593;SDS011;6362;50.208;9.182;2022-09-09T13:59:22;7.30;;;0.80;;
12593;SDS011;6362;50.208;9.182;2022-09-09T14:01:49;5.60;;;0.90;;
12593;SDS011;6362;50.208;9.182;2022-09-09T14:04:17;4.60;;;0.70;;
12593;SDS011;6362;50.208;9.182;2022-09-09T14:06:42;2.88;;;0.60;;
12593;SDS011;6362;50.208;9.182;2022-09-09T14:09:10;3.80;;;0.60;;
12593;SDS011;6362;50.208;9.182;2022-09-09T14:11:37;4.25;;;0.75;;
12593;SDS011;6362;50.208;9.182;2022-09-09T14:14:03;6.57;;;0.70;;
12593;SDS011;6362;50.208;9.182;2022-09-09T14:16:30;5.07;;;1.00;;
12593;SDS011;6362;50.208;9.182;2022-09-09T14:18:55;4.55;;;1.02;;
12593;SDS011;6362;50.208;9.182;2022-09-09T14:21:22;8.27;;;0.73;;
12593;SDS011;6362;50.208;9.182;2022-09-09T14:23:48;6.70;;;1.15;;
12593;SDS011;6362;50.208;9.182;2022-09-09T14:26:13;7.30;;;0.85;;
12593;SDS011;6362;50.208;9.182;2022-09-09T14:28:39;8.10;;;1.05;;
12593;SDS011;6362;50.208;9.182;2022-09-09T14:31:05;4.43;;;0.80;;
12593;SDS011;6362;50.208;9.182;2022-09-09T14:33:31;3.33;;;0.40;;
12593;SDS011;6362;50.208;9.182;2022-09-09T14:35:57;1.77;;;0.50;;
12593;SDS011;6362;50.208;9.182;2022-09-09T14:38:24;5.07;;;0.60;;
12593;SDS011;6362;50.208;9.182;2022-09-09T14:40:49;4.75;;;0.60;;
12593;SDS011;6362;50.208;9.182;2022-09-09T14:43:15;1.42;;;0.40;;
12593;SDS011;6362;50.208;9.182;2022-09-09T14:45:40;1.88;;;0.50;;
12593;SDS011;6362;50.208;9.182;2022-09-09T14:48:05;4.18;;;0.50;;
12593;SDS011;6362;50.208;9.182;2022-09-09T14:50:31;5.18;;;0.40;;
12593;SDS011;6362;50.208;9.182;2022-09-09T14:52:56;2.10;;;0.40;;
12593;SDS011;6362;50.208;9.182;2022-09-09T14:55:22;2.33;;;0.32;;
12593;SDS011;6362;50.208;9.182;2022-09-09T14:57:47;2.90;;;0.40;;
12593;SDS011;6362;50.208;9.182;2022-09-09T15:00:13;3.22;;;0.50;;
12593;SDS011;6362;50.208;9.182;2022-09-09T15:02:39;2.42;;;0.38;;
12593;SDS011;6362;50.208;9.182;2022-09-09T15:05:05;2.72;;;0.55;;
12593;SDS011;6362;50.208;9.182;2022-09-09T15:07:30;2.50;;;0.45;;
12593;SDS011;6362;50.208;9.182;2022-09-09T15:09:57;1.80;;;0.30;;
12593;SDS011;6362;50.208;9.182;2022-09-09T15:12:22;2.13;;;0.38;;
12593;SDS011;6362;50.208;9.182;2022-09-09T15:14:49;1.92;;;0.30;;
12593;SDS011;6362;50.208;9.182;2022-09-09T15:17:16;1.73;;;0.30;;
12593;SDS011;6362;50.208;9.182;2022-09-09T15:19:41;3.55;;;0.40;;
12593;SDS011;6362;50.208;9.182;2022-09-09T15:22:07;3.45;;;0.40;;
12593;SDS011;6362;50.208;9.182;2022-09-09T15:24:33;2.38;;;0.40;;
12593;SDS011;6362;50.208;9.182;2022-09-09T15:27:00;3.05;;;0.45;;
12593;SDS011;6362;50.208;9.182;2022-09-09T15:29:26;1.90;;;0.50;;
12593;SDS011;6362;50.208;9.182;2022-09-09T15:31:55;2.55;;;0.32;;
12593;SDS011;6362;50.208;9.182;2022-09-09T15:34:21;1.80;;;0.32;;
12593;SDS011;6362;50.208;9.182;2022-09-09T15:36:46;4.97;;;0.50;;
12593;SDS011;6362;50.208;9.182;2022-09-09T15:39:13;1.30;;;0.32;;
12593;SDS011;6362;50.208;9.182;2022-09-09T15:41:44;3.35;;;0.40;;
12593;SDS011;6362;50.208;9.182;2022-09-09T15:44:11;3.53;;;0.38;;
12593;SDS011;6362;50.208;9.182;2022-09-09T15:46:38;2.63;;;0.45;;
12593;SDS011;6362;50.208;9.182;2022-09-09T15:51:35;5.05;;;1.00;;
12593;SDS011;6362;50.208;9.182;2022-09-09T15:54:04;2.13;;;0.30;;
12593;SDS011;6362;50.208;9.182;2022-09-09T15:56:30;3.17;;;0.50;;
12593;SDS011;6362;50.208;9.182;2022-09-09T15:58:57;1.95;;;0.50;;
12593;SDS011;6362;50.208;9.182;2022-09-09T16:01:24;2.75;;;0.30;;
12593;SDS011;6362;50.208;9.182;2022-09-09T16:03:51;3.95;;;0.80;;
12593;SDS011;6362;50.208;9.182;2022-09-09T16:06:17;3.95;;;0.50;;
12593;SDS011;6362;50.208;9.182;2022-09-09T16:08:46;3.47;;;0.57;;
12593;SDS011;6362;50.208;9.182;2022-09-09T16:11:25;3.08;;;0.40;;
12593;SDS011;6362;50.208;9.182;2022-09-09T16:13:52;2.28;;;0.40;;
12593;SDS011;6362;50.208;9.182;2022-09-09T16:16:21;3.22;;;0.52;;
12593;SDS011;6362;50.208;9.182;2022-09-09T16:18:52;1.35;;;0.30;;
12593;SDS011;6362;50.208;9.182;2022-09-09T16:23:57;3.53;;;0.35;;
12593;SDS011;6362;50.208;9.182;2022-09-09T16:26:30;2.17;;;0.30;;
12593;SDS011;6362;50.208;9.182;2022-09-09T16:28:58;2.72;;;0.20;;
12593;SDS011;6362;50.208;9.182;2022-09-09T16:31:24;2.92;;;0.60;;
12593;SDS011;6362;50.208;9.182;2022-09-09T16:33:51;1.83;;;0.30;;
12593;SDS011;6362;50.208;9.182;2022-09-09T16:36:18;7.13;;;0.40;;
12593;SDS011;6362;50.208;9.182;2022-09-09T16:38:44;2.20;;;0.38;;
12593;SDS011;6362;50.208;9.182;2022-09-09T16:41:10;1.15;;;0.28;;
12593;SDS011;6362;50.208;9.182;2022-09-09T16:43:37;2.90;;;0.40;;
12593;SDS011;6362;50.208;9.182;2022-09-09T16:46:12;1.88;;;0.30;;
12593;SDS011;6362;50.208;9.182;2022-09-09T16:48:43;1.35;;;0.40;;
12593;SDS011;6362;50.208;9.182;2022-09-09T16:51:14;4.80;;;0.40;;
12593;SDS011;6362;50.208;9.182;2022-09-09T16:53:50;3.33;;;0.38;;
12593;SDS011;6362;50.208;9.182;2022-09-09T16:56:21;2.42;;;0.50;;
12593;SDS011;6362;50.208;9.182;2022-09-09T17:01:16;3.88;;;0.40;;
12593;SDS011;6362;50.208;9.182;2022-09-09T17:03:42;2.83;;;0.52;;
12593;SDS011;6362;50.208;9.182;2022-09-09T17:06:11;2.13;;;0.40;;
12593;SDS011;6362;50.208;9.182;2022-09-09T17:08:40;2.10;;;0.47;;
12593;SDS011;6362;50.208;9.182;2022-09-09T17:11:16;2.95;;;0.50;;
12593;SDS011;6362;50.208;9.182;2022-09-09T17:13:43;3.80;;;0.50;;
12593;SDS011;6362;50.208;9.182;2022-09-09T17:16:13;4.95;;;0.60;;
12593;SDS011;6362;50.208;9.182;2022-09-09T17:18:40;2.40;;;0.50;;
12593;SDS011;6362;50.208;9.182;2022-09-09T17:21:06;1.48;;;0.30;;
12593;SDS011;6362;50.208;9.182;2022-09-09T17:23:33;2.75;;;0.52;;
12593;SDS011;6362;50.208;9.182;2022-09-09T17:26:03;3.97;;;0.70;;
12593;SDS011;6362;50.208;9.182;2022-09-09T17:28:33;2.33;;;0.63;;
12593;SDS011;6362;50.208;9.182;2022-09-09T17:30:59;4.47;;;0.70;;
12593;SDS011;6362;50.208;9.182;2022-09-09T17:33:29;1.65;;;0.40;;